Time;durP1;ratioP1;P1;durP2;ratioP2;P2;SDS_P1;SDS_P2;PMS_P1;PMS_P2;Temp;Humidity;BMP_temperature;BMP_pressure;BME280_temperature;BME280_humidity;BME280_pressure;Samples;Min_cycle;Max_cycle;Signal;HPM_P1;HPM_P2
2023/01/17 00:02:24;;;;;;;;;7.75;7.75;;;;;-146.44;100.00;58906.56;5075310;27;45382;-58
2023/01/17 00:10:23;;;;;;;;;9.50;8.75;;;;;-146.44;100.00;58906.56;5075178;27;45426;-58
2023/01/17 00:12:57;;;;;;;;;5.00;5.00;;;;;-146.44;100.00;58906.56;5057067;28;45473;-58
2023/01/17 00:15:24;;;;;;;;;5.00;5.00;;;;;-146.44;100.00;58906.56;5069439;27;45499;-58
2023/01/17 00:17:50;;;;;;;;;5.50;5.50;;;;;-146.44;100.00;58906.56;5075938;27;45518;-58
2023/01/17 00:26:02;;;;;;;;;4.25;4.25;;;;;-146.44;100.00;58906.56;5071825;27;45721;-58
2023/01/17 01:35:23;;;;;;;;;8.00;8.00;;;;;-146.44;100.00;58906.56;5061211;28;45833;-58
2023/01/17 01:37:48;;;;;;;;;3.50;3.25;;;;;-146.44;100.00;58906.56;5073755;27;45501;-58
2023/01/17 01:40:15;;;;;;;;;9.75;7.50;;;;;-146.44;100.00;58906.56;5073387;27;46473;-58
2023/01/17 01:42:53;;;;;;;;;8.50;7.50;;;;;-146.44;100.00;58906.56;5071389;27;45521;-58
2023/01/17 01:45:21;;;;;;;;;6.00;6.00;;;;;-146.44;100.00;58906.56;5074495;27;45468;-58
2023/01/17 01:47:48;;;;;;;;;5.50;5.50;;;;;-146.44;100.00;58906.56;5072849;27;45539;-58
2023/01/17 01:50:15;;;;;;;;;9.75;8.00;;;;;-146.44;100.00;58906.56;5064823;27;46066;-58
2023/01/17 01:52:46;;;;;;;;;6.75;6.75;;;;;-146.44;100.00;58906.56;5069663;27;45503;-58
2023/01/17 01:55:16;;;;;;;;;8.25;7.00;;;;;-146.44;100.00;58906.56;5074330;27;45470;-58
2023/01/17 01:57:49;;;;;;;;;5.50;5.00;;;;;-146.44;100.00;58906.56;5074574;28;45529;-58
2023/01/17 02:00:23;;;;;;;;;9.00;7.00;;;;;-146.44;100.00;58906.56;5074337;27;45482;-58
2023/01/17 02:02:51;;;;;;;;;4.75;4.00;;;;;-146.44;100.00;58906.56;5073558;27;45395;-60
2023/01/17 02:05:21;;;;;;;;;8.25;8.00;;;;;-146.44;100.00;58906.56;5067288;27;45587;-58
2023/01/17 02:08:01;;;;;;;;;7.50;7.00;;;;;-146.44;100.00;58906.56;5074360;27;45479;-58
2023/01/17 02:10:27;;;;;;;;;5.50;5.50;;;;;-146.44;100.00;58906.56;5073051;27;45628;-59
2023/01/17 02:12:54;;;;;;;;;6.50;5.00;;;;;-146.44;100.00;58906.56;5061405;27;45470;-58
2023/01/17 02:15:28;;;;;;;;;8.00;7.25;;;;;-146.44;100.00;58906.56;5074271;27;45435;-58
2023/01/17 02:18:18;;;;;;;;;4.00;4.00;;;;;-146.44;100.00;58906.56;5073557;27;45483;-58
2023/01/17 02:21:16;;;;;;;;;8.00;8.00;;;;;-146.44;100.00;58906.56;5072003;27;45584;-58
2023/01/17 02:23:51;;;;;;;;;15.25;11.50;;;;;-146.44;100.00;58906.56;5065749;28;45576;-58
2023/01/17 02:26:45;;;;;;;;;14.00;11.25;;;;;-146.44;100.00;58906.56;5072395;28;45591;-58
2023/01/17 02:29:51;;;;;;;;;9.50;9.50;;;;;-146.44;100.00;58906.56;5042868;27;46589;-58
2023/01/17 02:32:33;;;;;;;;;10.00;10.00;;;;;-146.44;100.00;58906.56;5065618;28;46444;-58
2023/01/17 02:35:19;;;;;;;;;11.50;9.75;;;;;-146.44;100.00;58906.56;5073734;27;45581;-58
2023/01/17 02:38:09;;;;;;;;;9.75;8.75;;;;;-146.44;100.00;58906.56;5073996;27;45493;-58
2023/01/17 02:40:37;;;;;;;;;9.50;9.25;;;;;-146.44;100.00;58906.56;5073890;27;45536;-58
2023/01/17 02:43:09;;;;;;;;;11.25;9.75;;;;;-146.44;100.00;58906.56;5072804;27;46125;-58
2023/01/17 02:45:34;;;;;;;;;10.75;10.75;;;;;-146.44;100.00;58906.56;5070452;28;45516;-58
2023/01/17 02:48:00;;;;;;;;;7.00;7.00;;;;;-146.44;100.00;58906.56;5073828;27;45424;-58
2023/01/17 02:50:54;;;;;;;;;9.00;8.00;;;;;-146.44;100.00;58906.56;5076914;27;45437;-58
2023/01/17 02:54:07;;;;;;;;;9.25;9.25;;;;;-146.44;100.00;58906.56;5069155;27;45504;-58
2023/01/17 02:56:38;;;;;;;;;12.25;11.25;;;;;-146.44;100.00;58906.56;5055697;28;45501;-58
2023/01/17 02:59:40;;;;;;;;;9.50;9.50;;;;;-146.44;100.00;58906.56;5075407;27;45549;-58
2023/01/17 03:02:16;;;;;;;;;9.50;9.50;;;;;-146.44;100.00;58906.56;5075362;27;45503;-58
2023/01/17 03:04:52;;;;;;;;;14.00;14.00;;;;;-146.44;100.00;58906.56;5076652;27;45555;-58
2023/01/17 03:07:23;;;;;;;;;13.00;13.00;;;;;-146.44;100.00;58906.56;5076806;27;45491;-58
2023/01/17 03:09:55;;;;;;;;;14.00;14.00;;;;;-146.44;100.00;58906.56;5077155;27;45537;-58
2023/01/17 03:12:20;;;;;;;;;15.00;14.00;;;;;-146.44;100.00;58906.56;5064792;27;45593;-58
2023/01/17 03:14:46;;;;;;;;;14.25;13.75;;;;;-146.44;100.00;58906.56;5076854;27;45538;-58
2023/01/17 03:17:11;;;;;;;;;13.50;11.25;;;;;-146.44;100.00;58906.56;5075468;27;45461;-58
2023/01/17 03:19:37;;;;;;;;;16.00;16.00;;;;;-146.44;100.00;58906.56;5077118;27;45446;-58
2023/01/17 03:22:02;;;;;;;;;12.00;12.00;;;;;-146.44;100.00;58906.56;5076836;27;45529;-58
2023/01/17 03:24:27;;;;;;;;;16.50;15.00;;;;;-146.44;100.00;58906.56;5076502;27;46322;-58
2023/01/17 03:26:53;;;;;;;;;16.75;16.75;;;;;-146.44;100.00;58906.56;5069427;27;45695;-58
2023/01/17 03:29:18;;;;;;;;;16.50;15.00;;;;;-146.44;100.00;58906.56;5069187;27;45410;-58
2023/01/17 03:31:44;;;;;;;;;18.25;17.50;;;;;-146.44;100.00;58906.56;5063650;27;47525;-58
2023/01/17 03:34:09;;;;;;;;;18.00;18.00;;;;;-146.44;100.00;58906.56;5056156;28;45484;-58
2023/01/17 03:36:35;;;;;;;;;18.25;18.25;;;;;-146.44;100.00;58906.56;5063279;28;45706;-58
2023/01/17 03:39:01;;;;;;;;;18.75;17.00;;;;;-146.44;100.00;58906.56;5076699;27;45569;-58
2023/01/17 03:41:27;;;;;;;;;17.00;17.00;;;;;-146.44;100.00;58906.56;5062094;27;45422;-58
2023/01/17 03:43:52;;;;;;;;;17.25;17.25;;;;;-146.44;100.00;58906.56;5073528;27;46276;-58
2023/01/17 03:46:21;;;;;;;;;16.00;15.00;;;;;-146.44;100.00;58906.56;5072285;27;45731;-58
2023/01/17 03:48:47;;;;;;;;;20.50;20.00;;;;;-146.44;100.00;58906.56;5067159;27;45607;-58
2023/01/17 03:51:12;;;;;;;;;16.00;15.00;;;;;-146.44;100.00;58906.56;5071533;27;45429;-58
2023/01/17 03:53:38;;;;;;;;;25.00;20.25;;;;;-146.44;100.00;58906.56;5076182;27;46246;-58
2023/01/17 03:56:03;;;;;;;;;19.75;18.25;;;;;-146.44;100.00;58906.56;5076204;27;45471;-58
2023/01/17 03:58:29;;;;;;;;;20.25;19.75;;;;;-146.44;100.00;58906.56;5061186;27;45552;-58
2023/01/17 04:00:54;;;;;;;;;22.00;18.75;;;;;-146.44;100.00;58906.56;5075387;27;46197;-58
2023/01/17 04:03:19;;;;;;;;;16.00;15.25;;;;;-146.44;100.00;58906.56;5074987;27;46015;-58
2023/01/17 04:05:45;;;;;;;;;21.00;16.25;;;;;-146.44;100.00;58906.56;5067626;27;45483;-58
2023/01/17 04:08:10;;;;;;;;;20.50;19.00;;;;;-146.44;100.00;58906.56;5071808;28;45479;-58
2023/01/17 04:10:35;;;;;;;;;18.25;18.25;;;;;-146.44;100.00;58906.56;5075419;27;45589;-58
2023/01/17 04:13:01;;;;;;;;;16.00;15.00;;;;;-146.44;100.00;58906.56;5073927;27;51203;-58
2023/01/17 04:15:26;;;;;;;;;17.00;16.75;;;;;-146.44;100.00;58906.56;5075526;27;45539;-58
2023/01/17 04:17:51;;;;;;;;;17.25;15.00;;;;;-146.44;100.00;58906.56;5067215;28;45597;-58
2023/01/17 04:20:38;;;;;;;;;21.25;19.75;;;;;-146.44;100.00;58906.56;5074398;27;45426;-58
2023/01/17 04:23:03;;;;;;;;;19.00;16.75;;;;;-146.44;100.00;58906.56;5065227;28;46227;-58
2023/01/17 04:25:29;;;;;;;;;25.00;24.50;;;;;-146.44;100.00;58906.56;5069112;27;45479;-58
2023/01/17 04:27:59;;;;;;;;;18.25;16.75;;;;;-146.44;100.00;58906.56;5073888;27;45788;-59
2023/01/17 04:30:25;;;;;;;;;18.00;18.00;;;;;-146.44;100.00;58906.56;5075280;27;45572;-59
2023/01/17 04:32:51;;;;;;;;;20.00;17.50;;;;;-146.44;100.00;58906.56;5073569;27;45496;-59
2023/01/17 04:35:16;;;;;;;;;16.25;15.50;;;;;-146.44;100.00;58906.56;5072308;27;45551;-59
2023/01/17 04:37:42;;;;;;;;;15.00;15.00;;;;;-146.44;100.00;58906.56;5073645;27;45485;-59
2023/01/17 04:40:08;;;;;;;;;22.75;15.50;;;;;-146.44;100.00;58906.56;5073078;27;45442;-62
2023/01/17 04:42:34;;;;;;;;;19.50;17.25;;;;;-146.44;100.00;58906.56;5071217;27;46081;-61
2023/01/17 04:44:59;;;;;;;;;13.50;13.50;;;;;-146.44;100.00;58906.56;5074025;27;45455;-57
2023/01/17 04:47:25;;;;;;;;;17.00;14.25;;;;;-146.44;100.00;58906.56;5070686;27;45476;-58
2023/01/17 04:49:50;;;;;;;;;14.00;13.00;;;;;-146.44;100.00;58906.56;5069243;27;45615;-51
2023/01/17 04:52:17;;;;;;;;;14.75;14.25;;;;;-146.44;100.00;58906.56;5074223;27;45853;-61
2023/01/17 04:54:43;;;;;;;;;13.00;13.00;;;;;-146.44;100.00;58906.56;5074162;27;45550;-54
2023/01/17 04:57:08;;;;;;;;;17.75;16.75;;;;;-146.44;100.00;58906.56;5072479;27;45986;-58
2023/01/17 04:59:33;;;;;;;;;17.25;15.50;;;;;-146.44;100.00;58906.56;5070483;27;45663;-59
2023/01/17 05:01:59;;;;;;;;;18.25;16.25;;;;;-146.44;100.00;58906.56;5070095;27;49840;-58
2023/01/17 05:04:24;;;;;;;;;16.75;15.00;;;;;-146.44;100.00;58906.56;5074594;27;45485;-58
2023/01/17 05:06:49;;;;;;;;;15.00;13.50;;;;;-146.44;100.00;58906.56;5074407;27;45578;-58
2023/01/17 05:09:15;;;;;;;;;18.75;14.00;;;;;-146.44;100.00;58906.56;5074054;27;45426;-58
2023/01/17 05:11:40;;;;;;;;;15.25;14.00;;;;;-146.44;100.00;58906.56;5073525;27;48475;-58
2023/01/17 05:14:05;;;;;;;;;17.00;16.00;;;;;-146.44;100.00;58906.56;5073862;27;45487;-58
2023/01/17 05:16:31;;;;;;;;;13.00;13.00;;;;;-146.44;100.00;58906.56;5074108;27;45414;-58
2023/01/17 05:18:56;;;;;;;;;20.25;15.00;;;;;-146.44;100.00;58906.56;5073956;27;45429;-58
2023/01/17 05:21:22;;;;;;;;;14.00;14.00;;;;;-146.44;100.00;58906.56;5073528;27;45466;-58
2023/01/17 05:23:48;;;;;;;;;12.75;12.75;;;;;-146.44;100.00;58906.56;5073854;27;45482;-57
2023/01/17 05:26:13;;;;;;;;;12.50;12.50;;;;;-146.44;100.00;58906.56;5073716;27;45535;-58
2023/01/17 05:28:38;;;;;;;;;13.75;12.75;;;;;-146.44;100.00;58906.56;5073969;27;45497;-60
2023/01/17 05:31:04;;;;;;;;;12.25;12.25;;;;;-146.44;100.00;58906.56;5072627;27;45441;-58
2023/01/17 05:33:30;;;;;;;;;12.75;12.75;;;;;-146.44;100.00;58906.56;5073359;27;45663;-58
2023/01/17 05:35:56;;;;;;;;;18.00;14.25;;;;;-146.44;100.00;58906.56;5073626;27;45480;-58
2023/01/17 05:38:22;;;;;;;;;14.50;14.50;;;;;-146.44;100.00;58906.56;5073886;27;45539;-58
2023/01/17 05:40:48;;;;;;;;;15.25;14.25;;;;;-146.44;100.00;58906.56;5059073;27;45434;-58
2023/01/17 05:43:13;;;;;;;;;14.75;14.75;;;;;-146.44;100.00;58906.56;5073697;27;45524;-58
2023/01/17 05:45:39;;;;;;;;;13.75;13.00;;;;;-146.44;100.00;58906.56;5073755;27;45484;-57
2023/01/17 05:48:05;;;;;;;;;12.00;11.25;;;;;-146.44;100.00;58906.56;5073365;27;45552;-58
2023/01/17 05:50:33;;;;;;;;;14.25;14.25;;;;;-146.44;100.00;58906.56;5072425;27;46073;-57
2023/01/17 05:53:05;;;;;;;;;13.50;13.50;;;;;-146.44;100.00;58906.56;5068609;27;45568;-57
2023/01/17 05:55:31;;;;;;;;;14.00;12.25;;;;;-146.44;100.00;58906.56;5064411;27;45423;-57
2023/01/17 05:57:58;;;;;;;;;13.75;13.00;;;;;-146.44;100.00;58906.56;5071896;27;45488;-57
2023/01/17 06:00:23;;;;;;;;;13.75;13.00;;;;;-146.44;100.00;58906.56;5073243;27;45858;-58
2023/01/17 06:02:51;;;;;;;;;12.50;12.50;;;;;-146.44;100.00;58906.56;5072994;27;45535;-58
2023/01/17 06:05:16;;;;;;;;;15.25;14.75;;;;;-146.44;100.00;58906.56;5073385;27;45612;-58
2023/01/17 06:07:45;;;;;;;;;18.25;13.50;;;;;-146.44;100.00;58906.56;5073347;27;45528;-58
2023/01/17 06:10:15;;;;;;;;;14.00;12.25;;;;;-146.44;100.00;58906.56;5072987;27;45537;-58
2023/01/17 06:12:41;;;;;;;;;20.25;17.25;;;;;-146.44;100.00;58906.56;5073247;27;45528;-57
2023/01/17 06:15:07;;;;;;;;;19.25;15.50;;;;;-146.44;100.00;58906.56;5072867;27;45488;-58
2023/01/17 06:17:33;;;;;;;;;18.50;18.00;;;;;-146.44;100.00;58906.56;5073277;27;45457;-58
2023/01/17 06:19:59;;;;;;;;;15.25;15.25;;;;;-146.44;100.00;58906.56;5071845;27;45954;-58
2023/01/17 06:22:24;;;;;;;;;14.75;13.75;;;;;-146.44;100.00;58906.56;5072136;27;45452;-58
2023/01/17 06:24:49;;;;;;;;;18.75;18.75;;;;;-146.44;100.00;58906.56;5072288;27;46073;-58
2023/01/17 06:27:15;;;;;;;;;20.50;17.75;;;;;-146.44;100.00;58906.56;5073197;27;45499;-57
2023/01/17 06:29:40;;;;;;;;;23.50;18.00;;;;;-146.44;100.00;58906.56;5072970;27;45446;-58
2023/01/17 06:32:05;;;;;;;;;18.25;17.75;;;;;-146.44;100.00;58906.56;5072733;27;45490;-57
2023/01/17 06:34:31;;;;;;;;;18.25;16.50;;;;;-146.44;100.00;58906.56;5072772;27;45510;-57
2023/01/17 06:36:56;;;;;;;;;19.25;19.25;;;;;-146.44;100.00;58906.56;5072781;27;45503;-58
2023/01/17 06:39:21;;;;;;;;;18.50;16.00;;;;;-146.44;100.00;58906.56;5068662;27;46219;-58
2023/01/17 06:41:47;;;;;;;;;18.25;17.25;;;;;-146.44;100.00;58906.56;5062507;27;45509;-57
2023/01/17 06:44:12;;;;;;;;;17.00;17.00;;;;;-146.44;100.00;58906.56;5070937;27;45448;-57
2023/01/17 06:46:39;;;;;;;;;18.00;15.00;;;;;-146.44;100.00;58906.56;5071742;27;45658;-58
2023/01/17 06:49:04;;;;;;;;;21.75;19.75;;;;;-146.44;100.00;58906.56;5072725;27;46215;-58
2023/01/17 06:51:29;;;;;;;;;20.00;17.00;;;;;-146.44;100.00;58906.56;5069465;27;47996;-58
2023/01/17 06:53:55;;;;;;;;;20.75;19.50;;;;;-146.44;100.00;58906.56;5071980;27;46221;-58
2023/01/17 06:56:20;;;;;;;;;19.75;18.50;;;;;-146.44;100.00;58906.56;5072440;27;45567;-58
2023/01/17 06:58:50;;;;;;;;;19.00;19.00;;;;;-146.44;100.00;58906.56;5072347;27;46194;-58
2023/01/17 07:01:17;;;;;;;;;19.25;18.25;;;;;-146.44;100.00;58906.56;5072453;27;45566;-58
2023/01/17 07:03:42;;;;;;;;;24.50;18.75;;;;;-146.44;100.00;58906.56;5072337;27;45614;-58
2023/01/17 07:06:08;;;;;;;;;20.50;19.75;;;;;-146.44;100.00;58906.56;5072457;27;45565;-57
2023/01/17 07:08:34;;;;;;;;;13.75;13.50;;;;;-146.44;100.00;58906.56;5072351;27;45914;-58
2023/01/17 07:11:02;;;;;;;;;19.75;15.00;;;;;-146.44;100.00;58906.56;5072431;27;45558;-58
2023/01/17 07:13:29;;;;;;;;;18.00;15.25;;;;;-146.44;100.00;58906.56;5072156;27;45463;-58
2023/01/17 07:15:55;;;;;;;;;20.25;19.00;;;;;-146.44;100.00;58906.56;5072395;27;45595;-58
2023/01/17 07:18:23;;;;;;;;;19.25;18.25;;;;;-146.44;100.00;58906.56;5072230;27;45962;-58
2023/01/17 07:20:49;;;;;;;;;18.00;18.00;;;;;-146.44;100.00;58906.56;5072311;27;45437;-59
2023/01/17 07:23:15;;;;;;;;;17.75;17.50;;;;;-146.44;100.00;58906.56;5070628;27;45458;-58
2023/01/17 07:25:40;;;;;;;;;20.50;18.50;;;;;-146.44;100.00;58906.56;5070867;27;45411;-58
2023/01/17 07:28:06;;;;;;;;;19.00;19.00;;;;;-146.44;100.00;58906.56;5072080;27;46129;-58
2023/01/17 07:30:31;;;;;;;;;21.25;15.50;;;;;-146.44;100.00;58906.56;5072026;27;45493;-58
2023/01/17 07:32:57;;;;;;;;;15.50;14.75;;;;;-146.44;100.00;58906.56;5072104;27;45536;-58
2023/01/17 07:35:26;;;;;;;;;17.75;17.50;;;;;-146.44;100.00;58906.56;5072071;27;45509;-59
2023/01/17 07:37:52;;;;;;;;;17.25;17.25;;;;;-146.44;100.00;58906.56;5075530;27;45484;-58
2023/01/17 07:40:19;;;;;;;;;17.75;17.50;;;;;-146.44;100.00;58906.56;5063123;27;45534;-57
2023/01/17 07:42:45;;;;;;;;;14.00;13.50;;;;;-146.44;100.00;58906.56;5073441;27;45428;-58
2023/01/17 07:45:13;;;;;;;;;15.25;15.25;;;;;-146.44;100.00;58906.56;5074579;27;45604;-58
2023/01/17 07:47:39;;;;;;;;;19.00;14.75;;;;;-146.44;100.00;58906.56;5075327;27;45552;-58
2023/01/17 07:50:05;;;;;;;;;22.25;18.00;;;;;-146.44;100.00;58906.56;5075193;27;45414;-58
2023/01/17 07:52:31;;;;;;;;;22.50;17.75;;;;;-146.44;100.00;58906.56;5075244;27;45537;-59
2023/01/17 07:54:56;;;;;;;;;18.75;16.75;;;;;-146.44;100.00;58906.56;5075203;27;45659;-58
2023/01/17 07:57:22;;;;;;;;;17.25;15.50;;;;;-146.44;100.00;58906.56;5075030;27;45920;-58
2023/01/17 07:59:49;;;;;;;;;21.00;18.25;;;;;-146.44;100.00;58906.56;5074997;27;45474;-59
2023/01/17 08:02:18;;;;;;;;;15.00;15.00;;;;;-146.44;100.00;58906.56;5075395;27;45571;-58
2023/01/17 08:04:43;;;;;;;;;15.25;14.75;;;;;-146.44;100.00;58906.56;5074646;27;45514;-58
2023/01/17 08:07:09;;;;;;;;;19.25;17.75;;;;;-146.44;100.00;58906.56;5074955;27;46023;-58
2023/01/17 08:09:34;;;;;;;;;18.50;17.50;;;;;-146.44;100.00;58906.56;5075066;27;45525;-59
2023/01/17 08:12:00;;;;;;;;;19.75;18.00;;;;;-146.44;100.00;58906.56;5073650;27;45627;-59
2023/01/17 08:14:25;;;;;;;;;18.25;17.25;;;;;-146.44;100.00;58906.56;5074851;27;45563;-59
2023/01/17 08:16:52;;;;;;;;;14.75;13.25;;;;;-146.44;100.00;58906.56;5074668;27;45947;-59
2023/01/17 08:19:17;;;;;;;;;19.50;19.25;;;;;-146.44;100.00;58906.56;5074734;27;45374;-59
2023/01/17 08:21:43;;;;;;;;;17.00;15.00;;;;;-146.44;100.00;58906.56;5074368;27;45568;-59
2023/01/17 08:24:13;;;;;;;;;17.50;17.50;;;;;-146.44;100.00;58906.56;5074738;27;45866;-59
2023/01/17 08:26:38;;;;;;;;;15.25;13.75;;;;;-146.44;100.00;58906.56;5074483;27;46139;-58
2023/01/17 08:29:04;;;;;;;;;18.75;16.50;;;;;-146.44;100.00;58906.56;5074515;27;45588;-59
2023/01/17 08:31:32;;;;;;;;;21.25;19.00;;;;;-146.44;100.00;58906.56;5074628;27;45519;-59
2023/01/17 08:33:58;;;;;;;;;19.50;18.00;;;;;-146.44;100.00;58906.56;5074355;27;45670;-58
2023/01/17 08:36:24;;;;;;;;;22.00;18.25;;;;;-146.44;100.00;58906.56;5072731;28;45577;-58
2023/01/17 08:38:51;;;;;;;;;20.00;19.00;;;;;-146.44;100.00;58906.56;5074335;27;45472;-58
2023/01/17 08:41:18;;;;;;;;;19.50;19.00;;;;;-146.44;100.00;58906.56;5060346;27;45593;-58
2023/01/17 08:43:45;;;;;;;;;21.50;20.25;;;;;-146.44;100.00;58906.56;5074619;27;45518;-58
2023/01/17 08:46:11;;;;;;;;;19.00;19.00;;;;;-146.44;100.00;58906.56;5073868;27;46096;-58
2023/01/17 08:48:36;;;;;;;;;20.75;20.25;;;;;-146.44;100.00;58906.56;5074393;27;45447;-58
2023/01/17 08:51:02;;;;;;;;;18.75;17.75;;;;;-146.44;100.00;58906.56;5074344;27;45588;-58
2023/01/17 08:53:28;;;;;;;;;18.50;17.50;;;;;-146.44;100.00;58906.56;5074212;27;45549;-59
2023/01/17 08:55:57;;;;;;;;;18.50;16.75;;;;;-146.44;100.00;58906.56;5073814;27;46126;-58
2023/01/17 08:58:23;;;;;;;;;19.25;12.25;;;;;-146.44;100.00;58906.56;5074355;27;45565;-58
2023/01/17 09:00:48;;;;;;;;;22.00;17.50;;;;;-146.44;100.00;58906.56;5074240;27;45401;-58
2023/01/17 09:03:13;;;;;;;;;15.50;15.50;;;;;-146.44;100.00;58906.56;5073608;27;46918;-58
2023/01/17 09:05:39;;;;;;;;;20.75;18.25;;;;;-146.44;100.00;58906.56;5073063;27;46264;-59
2023/01/17 09:08:04;;;;;;;;;18.25;17.50;;;;;-146.44;100.00;58906.56;5073926;27;46080;-58
2023/01/17 09:10:29;;;;;;;;;18.00;18.00;;;;;-146.44;100.00;58906.56;5074056;27;45576;-58
2023/01/17 09:12:55;;;;;;;;;21.25;17.75;;;;;-146.44;100.00;58906.56;5073889;27;45484;-58
2023/01/17 09:15:20;;;;;;;;;20.00;17.25;;;;;-146.44;100.00;58906.56;5073712;27;45579;-58
2023/01/17 09:17:46;;;;;;;;;17.75;16.00;;;;;-146.44;100.00;58906.56;5073806;27;45466;-58
2023/01/17 09:20:12;;;;;;;;;15.00;14.75;;;;;-146.44;100.00;58906.56;5073606;27;45495;-58
2023/01/17 09:22:37;;;;;;;;;15.50;13.50;;;;;-146.44;100.00;58906.56;5073948;27;45640;-58
2023/01/17 09:25:05;;;;;;;;;15.00;15.00;;;;;-146.44;100.00;58906.56;5072453;27;45988;-59
2023/01/17 09:27:31;;;;;;;;;16.50;14.50;;;;;-146.44;100.00;58906.56;5073769;27;46077;-58
2023/01/17 09:29:56;;;;;;;;;14.25;14.25;;;;;-146.44;100.00;58906.56;5073673;27;45747;-58
2023/01/17 09:32:21;;;;;;;;;16.25;14.25;;;;;-146.44;100.00;58906.56;5073685;27;45482;-58
2023/01/17 09:34:46;;;;;;;;;15.50;15.50;;;;;-146.44;100.00;58906.56;5073636;27;45411;-58
2023/01/17 09:37:12;;;;;;;;;23.75;22.00;;;;;-146.44;100.00;58906.56;5073313;27;45522;-58
2023/01/17 09:39:37;;;;;;;;;17.50;14.50;;;;;-146.44;100.00;58906.56;5067512;27;45490;-58
2023/01/17 09:42:29;;;;;;;;;14.25;12.75;;;;;-146.44;100.00;58906.56;5065793;28;45443;-58
2023/01/17 09:44:55;;;;;;;;;13.00;13.00;;;;;-146.44;100.00;58906.56;5073139;27;45533;-58
2023/01/17 09:47:38;;;;;;;;;12.25;12.00;;;;;-146.44;100.00;58906.56;5073285;27;45409;-58
2023/01/17 09:50:35;;;;;;;;;11.50;11.50;;;;;-146.44;100.00;58906.56;5073376;27;45622;-58
2023/01/17 09:53:09;;;;;;;;;16.50;16.50;;;;;-146.44;100.00;58906.56;5072372;27;45523;-59
2023/01/17 09:55:50;;;;;;;;;10.50;10.50;;;;;-146.44;100.00;58906.56;5072073;27;45561;-58
2023/01/17 09:58:28;;;;;;;;;14.75;12.50;;;;;-146.44;100.00;58906.56;5067381;27;45422;-58
2023/01/17 10:01:35;;;;;;;;;16.25;13.50;;;;;-146.44;100.00;58906.56;5066346;27;45537;-58
2023/01/17 10:04:00;;;;;;;;;13.50;10.00;;;;;-146.44;100.00;58906.56;5072481;27;45496;-58
2023/01/17 10:06:50;;;;;;;;;13.50;12.50;;;;;-146.44;100.00;58906.56;5072711;27;46272;-58
2023/01/17 10:09:33;;;;;;;;;12.75;12.75;;;;;-146.44;100.00;58906.56;5071615;27;45508;-58
2023/01/17 10:12:38;;;;;;;;;14.00;11.50;;;;;-146.44;100.00;58906.56;5073140;27;45539;-58
2023/01/17 10:15:23;;;;;;;;;13.00;9.50;;;;;-146.44;100.00;58906.56;5073039;27;45532;-58
2023/01/17 10:18:00;;;;;;;;;12.75;11.00;;;;;-146.44;100.00;58906.56;5072838;27;46182;-58
2023/01/17 10:20:41;;;;;;;;;10.75;10.25;;;;;-146.44;100.00;58906.56;5072987;27;45549;-58
2023/01/17 10:23:21;;;;;;;;;14.50;12.50;;;;;-146.44;100.00;58906.56;5072040;27;45456;-58
2023/01/17 10:25:48;;;;;;;;;15.75;14.00;;;;;-146.44;100.00;58906.56;5072955;27;45526;-58
2023/01/17 10:28:32;;;;;;;;;11.00;11.00;;;;;-146.44;100.00;58906.56;5072565;27;45534;-58
2023/01/17 10:31:03;;;;;;;;;10.50;8.25;;;;;-146.44;100.00;58906.56;5072760;27;46067;-58
2023/01/17 10:33:39;;;;;;;;;14.00;11.75;;;;;-146.44;100.00;58906.56;5072736;27;45534;-58
2023/01/17 10:36:11;;;;;;;;;11.50;10.00;;;;;-146.44;100.00;58906.56;5072879;27;45459;-58
2023/01/17 10:38:38;;;;;;;;;16.00;13.00;;;;;-146.44;100.00;58906.56;5072518;27;46156;-58
2023/01/17 10:41:14;;;;;;;;;13.50;12.50;;;;;-146.44;100.00;58906.56;5058355;27;45439;-58
2023/01/17 10:44:00;;;;;;;;;21.00;17.00;;;;;-146.44;100.00;58906.56;5072677;27;45536;-58
2023/01/17 10:46:35;;;;;;;;;13.75;13.75;;;;;-146.44;100.00;58906.56;5072649;27;45484;-58
2023/01/17 10:49:01;;;;;;;;;9.25;8.75;;;;;-146.44;100.00;58906.56;5072412;27;46146;-58
2023/01/17 10:51:51;;;;;;;;;11.50;10.00;;;;;-146.44;100.00;58906.56;5069647;27;45469;-58
2023/01/17 10:54:48;;;;;;;;;16.25;15.00;;;;;-146.44;100.00;58906.56;5070494;28;45580;-58
2023/01/17 10:57:20;;;;;;;;;7.00;7.00;;;;;-146.44;100.00;58906.56;5072578;27;45597;-58
2023/01/17 10:59:46;;;;;;;;;10.75;9.75;;;;;-146.44;100.00;58906.56;5072142;27;46406;-58
2023/01/17 11:02:23;;;;;;;;;9.00;9.00;;;;;-146.44;100.00;58906.56;5072453;27;45512;-58
2023/01/17 11:04:53;;;;;;;;;12.75;10.50;;;;;-146.44;100.00;58906.56;5072438;27;45541;-58
2023/01/17 11:07:22;;;;;;;;;10.00;10.00;;;;;-146.44;100.00;58906.56;5072404;27;45564;-59
2023/01/17 11:09:50;;;;;;;;;18.75;18.75;;;;;-146.44;100.00;58906.56;5072881;27;45472;-59
2023/01/17 11:12:21;;;;;;;;;15.00;14.25;;;;;-146.44;100.00;58906.56;5075924;27;45601;-59
2023/01/17 11:15:03;;;;;;;;;15.50;15.50;;;;;-146.44;100.00;58906.56;5075517;27;45526;-58
2023/01/17 11:17:30;;;;;;;;;13.25;11.25;;;;;-146.44;100.00;58906.56;5075598;27;45568;-59
2023/01/17 11:20:20;;;;;;;;;17.25;16.00;;;;;-146.44;100.00;58906.56;5074479;27;45578;-59
2023/01/17 11:23:02;;;;;;;;;19.00;19.00;;;;;-146.44;100.00;58906.56;5075460;27;45510;-59
2023/01/17 11:25:32;;;;;;;;;21.00;19.25;;;;;-146.44;100.00;58906.56;5075553;27;45519;-58
2023/01/17 11:28:17;;;;;;;;;16.75;14.75;;;;;-146.44;100.00;58906.56;5075655;27;45508;-58
2023/01/17 11:30:57;;;;;;;;;21.50;19.25;;;;;-146.44;100.00;58906.56;5075180;27;45442;-59
2023/01/17 11:33:46;;;;;;;;;37.50;32.75;;;;;-146.44;100.00;58906.56;5073770;27;45553;-59
2023/01/17 11:36:26;;;;;;;;;18.00;16.00;;;;;-146.44;100.00;58906.56;5075390;27;45525;-58
2023/01/17 11:39:03;;;;;;;;;20.50;18.75;;;;;-146.44;100.00;58906.56;5074928;27;45433;-58
2023/01/17 11:41:38;;;;;;;;;17.50;17.50;;;;;-146.44;100.00;58906.56;5075309;27;46105;-58
2023/01/17 11:44:26;;;;;;;;;16.00;15.50;;;;;-146.44;100.00;58906.56;5074973;27;45513;-58
2023/01/17 11:47:10;;;;;;;;;17.50;17.50;;;;;-146.44;100.00;58906.56;5075078;27;45456;-59
2023/01/17 11:49:36;;;;;;;;;16.00;15.00;;;;;-146.44;100.00;58906.56;5073824;27;45587;-59
2023/01/17 11:52:25;;;;;;;;;15.75;15.00;;;;;-146.44;100.00;58906.56;5074875;27;47114;-59
2023/01/17 11:54:53;;;;;;;;;19.00;15.00;;;;;-146.44;100.00;58906.56;5074441;27;45513;-59
2023/01/17 11:57:34;;;;;;;;;19.00;18.00;;;;;-146.44;100.00;58906.56;5075012;27;45563;-59
2023/01/17 12:00:22;;;;;;;;;20.00;19.75;;;;;-146.44;100.00;58906.56;5074760;27;45456;-59
2023/01/17 12:03:14;;;;;;;;;16.00;16.00;;;;;-146.44;100.00;58906.56;5074257;27;45583;-59
2023/01/17 12:05:52;;;;;;;;;16.75;16.75;;;;;-146.44;100.00;58906.56;5074616;27;45521;-59
2023/01/17 12:08:42;;;;;;;;;18.25;16.25;;;;;-146.44;100.00;58906.56;5074661;27;45503;-59
2023/01/17 12:11:15;;;;;;;;;17.25;17.25;;;;;-146.44;100.00;58906.56;5073361;27;45598;-59
2023/01/17 12:14:02;;;;;;;;;22.25;22.25;;;;;-146.44;100.00;58906.56;5074435;27;45511;-59
2023/01/17 12:16:45;;;;;;;;;19.75;19.50;;;;;-146.44;100.00;58906.56;5074347;27;45443;-60
2023/01/17 12:19:31;;;;;;;;;14.50;14.50;;;;;-146.44;100.00;58906.56;5073607;27;45429;-57
2023/01/17 12:22:06;;;;;;;;;18.75;17.25;;;;;-146.44;100.00;58906.56;5073585;27;45410;-59
2023/01/17 12:24:52;;;;;;;;;15.25;15.00;;;;;-146.44;100.00;58906.56;5074094;27;45577;-59
2023/01/17 12:27:48;;;;;;;;;17.50;17.50;;;;;-146.44;100.00;58906.56;5074137;27;45556;-59
2023/01/17 12:30:24;;;;;;;;;17.00;16.00;;;;;-146.44;100.00;58906.56;5074406;27;45473;-59
2023/01/17 12:33:12;;;;;;;;;18.50;15.75;;;;;-146.44;100.00;58906.56;5074583;27;45491;-59